Time;durP1;ratioP1;P1;durP2;ratioP2;P2;SDS_P1;SDS_P2;PMS_P1;PMS_P2;Temp;Humidity;BMP_temperature;BMP_pressure;BME280_temperature;BME280_humidity;BME280_pressure;Samples;Min_cycle;Max_cycle;Signal;HPM_P1;HPM_P2
2023/01/16 00:00:13;;;;;;;6.88;2.80;;;;;;;-143.48;90.82;118439.88;5016337;28;20108;-68
2023/01/16 00:02:39;;;;;;;9.10;2.55;;;;;;;-143.48;91.15;118439.88;4998708;28;20036;-68
2023/01/16 00:05:04;;;;;;;5.70;2.80;;;;;;;-143.48;91.62;118439.88;5016324;28;20029;-68
2023/01/16 00:07:29;;;;;;;10.60;3.33;;;;;;;-143.48;91.48;118439.88;5016459;28;20092;-68
2023/01/16 00:09:55;;;;;;;6.25;3.10;;;;;;;-143.48;91.31;118439.88;4998850;28;20548;-68
2023/01/16 00:12:20;;;;;;;7.13;2.90;;;;;;;-143.48;91.02;118439.88;4998702;28;20033;-68
2023/01/16 00:14:45;;;;;;;8.20;3.15;;;;;;;-143.48;90.63;118439.88;4998702;28;20128;-68
2023/01/16 00:17:11;;;;;;;5.72;3.00;;;;;;;-143.48;90.71;118439.88;5016266;28;20033;-68
2023/01/16 00:19:36;;;;;;;9.85;3.10;;;;;;;-143.48;90.69;118439.88;5016286;28;20432;-68
2023/01/16 00:22:02;;;;;;;5.60;3.40;;;;;;;-143.48;90.89;118439.88;5016142;28;20421;-68
2023/01/16 00:24:28;;;;;;;8.30;3.50;;;;;;;-143.48;91.02;118439.88;4998529;28;20495;-68
2023/01/16 00:26:53;;;;;;;7.60;3.38;;;;;;;-143.48;90.65;118439.88;4998351;28;20038;-69
2023/01/16 00:29:18;;;;;;;6.32;3.20;;;;;;;-143.48;90.85;118439.88;4998474;28;20025;-68
2023/01/16 00:31:44;;;;;;;3.90;3.00;;;;;;;-143.48;91.43;118439.88;5015919;28;20025;-68
2023/01/16 00:34:09;;;;;;;5.90;3.30;;;;;;;-143.48;90.65;118439.88;5015806;28;20032;-68
2023/01/16 00:36:34;;;;;;;8.30;3.50;;;;;;;-143.48;90.71;118439.88;5015017;28;20030;-68
2023/01/16 00:39:00;;;;;;;7.00;3.67;;;;;;;-143.48;90.97;118439.88;5015813;28;20481;-68
2023/01/16 00:41:25;;;;;;;7.72;3.67;;;;;;;-143.48;90.66;118439.88;5015604;28;20022;-68
2023/01/16 00:43:51;;;;;;;9.60;3.83;;;;;;;-143.48;90.31;118439.88;4997967;28;20052;-68
2023/01/16 00:46:17;;;;;;;6.00;4.35;;;;;;;-143.48;90.58;118439.88;4998154;28;20022;-68
2023/01/16 00:48:42;;;;;;;8.40;4.30;;;;;;;-143.48;90.53;118439.88;5015568;28;20050;-68
2023/01/16 00:51:07;;;;;;;7.32;4.47;;;;;;;-143.48;90.74;118439.88;4997962;28;20094;-68
2023/01/16 00:53:33;;;;;;;7.25;4.60;;;;;;;-143.48;90.12;118439.88;4998013;28;20030;-68
2023/01/16 00:55:58;;;;;;;7.18;4.97;;;;;;;-143.48;90.53;118439.88;5015500;28;20034;-68
2023/01/16 00:58:23;;;;;;;7.65;4.95;;;;;;;-143.48;90.20;118439.88;5015364;28;20481;-68
2023/01/16 01:00:49;;;;;;;7.30;5.13;;;;;;;-143.48;90.12;118439.88;5016442;28;20030;-68
2023/01/16 01:03:14;;;;;;;12.52;5.82;;;;;;;-143.48;90.61;118439.88;4997771;28;20030;-68
2023/01/16 01:05:40;;;;;;;10.40;5.85;;;;;;;-143.48;90.59;118439.88;5015340;28;20036;-68
2023/01/16 01:08:06;;;;;;;10.23;5.93;;;;;;;-143.48;90.36;118439.88;5015238;28;20495;-68
2023/01/16 01:10:32;;;;;;;10.40;6.38;;;;;;;-143.48;90.88;118439.88;5015156;28;20024;-68
2023/01/16 01:12:57;;;;;;;11.07;5.93;;;;;;;-143.48;91.12;118439.88;5015335;28;20068;-68
2023/01/16 01:15:23;;;;;;;14.25;6.68;;;;;;;-143.48;90.96;118439.88;4997412;28;20112;-68
2023/01/16 01:17:48;;;;;;;14.63;7.32;;;;;;;-143.48;91.63;118439.88;4997298;28;20028;-68
2023/01/16 01:20:14;;;;;;;14.38;7.53;;;;;;;-143.48;91.57;118439.88;5014890;28;20024;-68
2023/01/16 01:22:39;;;;;;;14.48;7.72;;;;;;;-143.48;91.84;118439.88;4997545;28;20033;-68
2023/01/16 01:25:05;;;;;;;17.77;8.38;;;;;;;-143.48;91.72;118439.88;4997363;28;20033;-68
2023/01/16 01:27:30;;;;;;;15.63;8.02;;;;;;;-143.48;91.56;118439.88;5014683;28;20398;-68
2023/01/16 01:29:55;;;;;;;14.05;8.25;;;;;;;-143.48;91.72;118439.88;4997341;28;20026;-68
2023/01/16 01:32:21;;;;;;;16.77;8.63;;;;;;;-143.48;91.23;118439.88;5014838;28;20036;-68
2023/01/16 01:34:46;;;;;;;14.18;8.02;;;;;;;-143.48;91.45;118439.88;5014725;28;20021;-68
2023/01/16 01:37:11;;;;;;;16.67;7.68;;;;;;;-143.48;92.50;118439.88;5014692;28;20374;-68
2023/01/16 01:39:37;;;;;;;16.10;7.72;;;;;;;-143.48;92.77;118439.88;5014743;28;20033;-68
2023/01/16 01:45:10;;;;;;;17.73;8.00;;;;;;;-143.48;92.21;118439.88;5014842;28;20067;-68
2023/01/16 01:47:40;;;;;;;18.92;7.30;;;;;;;-143.48;92.68;118439.88;5014202;28;20544;-69
2023/01/16 01:50:17;;;;;;;12.20;7.18;;;;;;;-143.48;92.85;118439.88;5014435;28;20026;-68
2023/01/16 01:52:43;;;;;;;19.17;7.60;;;;;;;-143.48;92.69;118439.88;4996782;28;20026;-68
2023/01/16 01:55:12;;;;;;;15.77;7.03;;;;;;;-143.48;92.93;118439.88;5014459;28;20389;-68
2023/01/16 01:57:42;;;;;;;14.85;7.57;;;;;;;-143.48;92.80;118439.88;5014223;28;20065;-67
2023/01/16 02:00:15;;;;;;;15.85;7.32;;;;;;;-143.48;92.82;118439.88;5014211;28;20032;-67
2023/01/16 02:02:43;;;;;;;;;;;;;;;-143.48;92.53;118439.88;5014587;28;20112;-67
2023/01/16 02:05:12;;;;;;;18.00;7.60;;;;;;;-143.48;92.96;118439.88;5014300;28;20262;-67
2023/01/16 02:07:38;;;;;;;15.82;7.40;;;;;;;-143.48;92.60;118439.88;4996464;28;20034;-68
2023/01/16 02:10:20;;;;;;;12.63;6.95;;;;;;;-143.48;93.07;118439.88;5014117;28;20037;-67
2023/01/16 02:12:46;;;;;;;13.98;6.80;;;;;;;-143.48;93.51;118439.88;5014043;28;20378;-67
2023/01/16 02:15:11;;;;;;;11.02;6.57;;;;;;;-143.48;93.09;118439.88;5014167;28;20026;-67
2023/01/16 02:20:28;;;;;;;16.58;7.00;;;;;;;-143.48;93.58;118439.88;5014115;28;20037;-67
2023/01/16 02:23:09;;;;;;;13.73;6.55;;;;;;;-143.48;93.59;118439.88;4996721;28;20025;-67
2023/01/16 02:25:56;;;;;;;12.15;6.72;;;;;;;-143.48;93.87;118439.88;5013723;28;20022;-67
2023/01/16 02:28:55;;;;;;;12.65;7.05;;;;;;;-143.48;94.17;118439.88;4997106;28;20469;-67
2023/01/16 02:31:37;;;;;;;20.00;7.28;;;;;;;-143.48;94.07;118439.88;5016996;28;20112;-67
2023/01/16 02:34:30;;;;;;;11.80;6.10;;;;;;;-143.48;93.56;118439.88;5013872;28;20100;-67
2023/01/16 02:37:07;;;;;;;14.85;7.25;;;;;;;-143.48;94.01;118439.88;5013792;28;20033;-67
2023/01/16 02:39:35;;;;;;;14.57;7.47;;;;;;;-143.48;93.82;118439.88;4996131;28;20037;-67
2023/01/16 02:42:04;;;;;;;21.63;6.35;;;;;;;-143.48;93.63;118439.88;5013469;28;20026;-68
2023/01/16 02:44:39;;;;;;;14.57;7.00;;;;;;;-143.48;94.00;118439.88;4996378;28;20116;-68
2023/01/16 02:47:10;;;;;;;14.25;6.28;;;;;;;-143.48;94.61;118439.88;4996021;28;20053;-68
2023/01/16 02:50:17;;;;;;;14.43;6.18;;;;;;;-143.48;93.73;118439.88;4996104;28;20021;-68
2023/01/16 02:53:17;;;;;;;17.63;7.20;;;;;;;-143.48;93.26;118439.88;5001420;28;20033;-69
2023/01/16 02:55:48;;;;;;;17.88;6.20;;;;;;;-143.48;93.13;118439.88;4998503;28;20025;-67
2023/01/16 02:58:16;;;;;;;15.50;7.43;;;;;;;-143.48;93.71;118439.88;4995909;28;20022;-67
2023/01/16 03:00:52;;;;;;;15.32;6.78;;;;;;;-143.48;93.31;118439.88;5015549;28;20469;-67
2023/01/16 03:03:35;;;;;;;14.48;6.47;;;;;;;-143.48;93.50;118439.88;4999928;28;20048;-67
2023/01/16 03:06:25;;;;;;;10.55;6.63;;;;;;;-143.48;94.10;118439.88;5017781;28;20033;-67
2023/01/16 03:09:32;;;;;;;14.15;6.88;;;;;;;-143.48;94.13;118439.88;5016609;28;20038;-67
2023/01/16 03:12:33;;;;;;;14.77;6.68;;;;;;;-143.48;93.78;118439.88;4999769;28;20030;-67
2023/01/16 03:15:30;;;;;;;10.40;5.57;;;;;;;-143.48;94.69;118439.88;4973832;28;20037;-67
2023/01/16 03:18:09;;;;;;;13.45;6.22;;;;;;;-143.48;94.64;118439.88;4999569;28;20033;-67
2023/01/16 03:20:54;;;;;;;12.18;5.28;;;;;;;-143.48;94.01;118439.88;5017162;28;20385;-67
2023/01/16 03:23:47;;;;;;;11.73;5.25;;;;;;;-143.48;94.50;118439.88;4999619;28;20129;-67
2023/01/16 03:26:40;;;;;;;14.00;5.40;;;;;;;-143.48;94.81;118439.88;5017143;28;20046;-67
2023/01/16 03:29:12;;;;;;;11.55;4.97;;;;;;;-143.48;94.30;118439.88;5017147;28;20022;-67
2023/01/16 03:31:48;;;;;;;9.55;4.38;;;;;;;-143.48;94.30;118439.88;4999486;28;20026;-67
2023/01/16 03:34:28;;;;;;;9.45;4.03;;;;;;;-143.48;94.39;118439.88;5017156;28;20033;-67
2023/01/16 03:36:59;;;;;;;7.63;3.53;;;;;;;-143.48;94.74;118439.88;4999340;28;20033;-67
2023/01/16 03:39:30;;;;;;;8.57;3.35;;;;;;;-143.48;94.41;118439.88;4999247;28;20076;-67
2023/01/16 03:42:02;;;;;;;12.82;3.50;;;;;;;-143.48;94.69;118439.88;4999207;28;20021;-67
2023/01/16 03:44:33;;;;;;;8.95;3.10;;;;;;;-143.48;94.84;118439.88;5016806;28;20026;-67
2023/01/16 03:47:00;;;;;;;11.80;2.92;;;;;;;-143.48;94.64;118439.88;5016686;28;20469;-67
2023/01/16 03:49:33;;;;;;;6.90;2.92;;;;;;;-143.48;94.39;118439.88;5016705;28;20489;-67
2023/01/16 03:52:02;;;;;;;11.20;2.83;;;;;;;-143.48;94.39;118439.88;5016782;28;20025;-67
2023/01/16 03:54:35;;;;;;;5.53;2.60;;;;;;;-143.48;94.05;118439.88;4998888;28;20046;-67
2023/01/16 03:57:10;;;;;;;9.77;3.10;;;;;;;-143.48;94.58;118439.88;5016611;28;20048;-67
2023/01/16 03:59:38;;;;;;;10.05;3.00;;;;;;;-143.48;94.33;118439.88;5016678;28;20468;-67
2023/01/16 04:02:21;;;;;;;8.90;2.55;;;;;;;-143.48;94.12;118439.88;5016422;28;20030;-67
2023/01/16 04:05:16;;;;;;;8.30;2.47;;;;;;;-143.48;94.13;118439.88;5016528;28;20044;-67
2023/01/16 04:07:56;;;;;;;7.00;2.50;;;;;;;-143.48;94.08;118439.88;5016386;28;20018;-67
2023/01/16 04:10:26;;;;;;;4.30;2.25;;;;;;;-143.48;93.97;118439.88;5016373;28;20438;-67
2023/01/16 04:12:56;;;;;;;6.13;2.33;;;;;;;-143.48;93.96;118439.88;5016362;28;20099;-67
2023/01/16 04:15:24;;;;;;;4.22;2.00;;;;;;;-143.48;93.61;118439.88;5016197;28;20026;-67
2023/01/16 04:17:51;;;;;;;8.15;2.20;;;;;;;-143.48;93.54;118439.88;5016202;28;20044;-67
2023/01/16 04:20:16;;;;;;;5.07;2.05;;;;;;;-143.48;93.30;118439.88;5016203;28;20026;-67
2023/01/16 04:22:47;;;;;;;6.25;2.15;;;;;;;-143.48;93.09;118439.88;5016210;28;20034;-67
2023/01/16 04:25:13;;;;;;;5.78;2.30;;;;;;;-143.48;92.96;118439.88;4998601;28;20439;-67
2023/01/16 04:27:38;;;;;;;6.57;2.22;;;;;;;-143.48;92.99;118439.88;5015785;28;20050;-67
2023/01/16 04:30:04;;;;;;;7.30;2.53;;;;;;;-143.48;92.49;118439.88;4998348;28;20042;-67
2023/01/16 04:32:29;;;;;;;5.18;2.08;;;;;;;-143.48;91.98;118439.88;5016016;28;20033;-67
2023/01/16 04:34:54;;;;;;;8.48;2.55;;;;;;;-143.48;92.75;118439.88;4998315;28;20034;-67
2023/01/16 04:37:20;;;;;;;9.95;2.20;;;;;;;-143.48;92.78;118439.88;5016074;28;20072;-67
2023/01/16 04:39:47;;;;;;;7.55;2.13;;;;;;;-143.48;93.22;118439.88;5017707;28;20481;-67
2023/01/16 04:42:13;;;;;;;8.90;2.20;;;;;;;-143.48;93.20;118439.88;5015997;28;20029;-67
2023/01/16 04:44:38;;;;;;;10.40;2.75;;;;;;;-143.48;93.33;118439.88;5015807;28;20034;-67
2023/01/16 04:47:03;;;;;;;8.50;2.28;;;;;;;-143.48;93.17;118439.88;5015524;28;20037;-67
2023/01/16 04:49:29;;;;;;;8.80;2.00;;;;;;;-143.48;93.14;118439.88;5015710;28;20026;-67
2023/01/16 04:51:54;;;;;;;6.53;2.35;;;;;;;-143.48;93.53;118439.88;5016677;28;20043;-68
2023/01/16 04:54:20;;;;;;;8.70;2.40;;;;;;;-143.48;93.59;118439.88;4998068;28;20499;-67
2023/01/16 04:56:45;;;;;;;7.80;1.83;;;;;;;-143.48;93.87;118439.88;4997836;28;20393;-67
2023/01/16 04:59:12;;;;;;;7.05;1.98;;;;;;;-143.48;94.31;118439.88;4997893;28;20084;-68
2023/01/16 05:01:38;;;;;;;7.32;2.55;;;;;;;-143.48;94.07;118439.88;5015252;28;20026;-68
2023/01/16 05:04:05;;;;;;;4.35;1.90;;;;;;;-143.48;94.22;118439.88;5015286;28;20492;-67
2023/01/16 05:06:32;;;;;;;3.28;1.60;;;;;;;-143.48;94.14;118439.88;5015616;28;20071;-67
2023/01/16 05:08:58;;;;;;;9.20;2.08;;;;;;;-143.48;93.49;118439.88;5019646;28;20030;-68
2023/01/16 05:11:23;;;;;;;6.63;1.83;;;;;;;-143.48;93.34;118439.88;5003746;28;20362;-68
2023/01/16 05:13:49;;;;;;;6.32;1.88;;;;;;;-143.48;93.50;118439.88;5015337;28;20389;-69
2023/01/16 05:16:14;;;;;;;8.63;1.80;;;;;;;-143.48;93.99;118439.88;5015301;28;20056;-67
2023/01/16 05:18:39;;;;;;;8.88;2.13;;;;;;;-143.48;93.38;118439.88;5015192;28;20101;-67
2023/01/16 05:21:05;;;;;;;8.15;1.80;;;;;;;-143.48;93.47;118439.88;4998018;28;20030;-67
2023/01/16 05:23:34;;;;;;;9.32;1.90;;;;;;;-143.48;93.97;118439.88;5014536;28;20030;-67
2023/01/16 05:26:01;;;;;;;7.60;2.13;;;;;;;-143.48;93.84;118439.88;5014766;28;20054;-67
2023/01/16 05:28:26;;;;;;;5.65;1.90;;;;;;;-143.48;94.12;118439.88;5015036;28;20076;-67
2023/01/16 05:30:52;;;;;;;7.18;2.00;;;;;;;-143.48;93.76;118439.88;4997179;28;20461;-67
2023/01/16 05:33:17;;;;;;;3.85;1.83;;;;;;;-143.48;93.42;118439.88;5014734;28;20025;-67
2023/01/16 05:35:45;;;;;;;6.68;1.83;;;;;;;-143.48;93.56;118439.88;5014847;28;20104;-67
2023/01/16 05:38:10;;;;;;;11.93;2.28;;;;;;;-143.48;93.60;118439.88;5014657;28;20559;-67
2023/01/16 05:40:35;;;;;;;9.10;2.08;;;;;;;-143.48;94.00;118439.88;5014576;28;20033;-67
2023/01/16 05:43:01;;;;;;;5.88;2.10;;;;;;;-143.48;93.66;118439.88;5014607;28;20029;-67
2023/01/16 05:45:26;;;;;;;7.70;2.03;;;;;;;-143.48;93.67;118439.88;5014511;28;20481;-67
2023/01/16 05:47:52;;;;;;;7.28;2.67;;;;;;;-143.48;93.84;118439.88;4996959;28;20105;-68
2023/01/16 05:50:17;;;;;;;3.15;1.60;;;;;;;-143.48;93.51;118439.88;5014450;28;20074;-66
2023/01/16 05:52:42;;;;;;;6.53;2.10;;;;;;;-143.48;93.58;118439.88;5014517;28;20464;-66
2023/01/16 05:55:08;;;;;;;7.20;1.85;;;;;;;-143.48;94.01;118439.88;5014413;28;20037;-67
2023/01/16 05:57:33;;;;;;;10.13;2.22;;;;;;;-143.48;94.28;118439.88;5014481;28;20496;-67
2023/01/16 05:59:58;;;;;;;7.18;2.53;;;;;;;-143.48;94.37;118439.88;5007986;28;20033;-67
2023/01/16 06:02:24;;;;;;;6.85;2.15;;;;;;;-143.48;93.39;118439.88;5018724;28;20057;-67
2023/01/16 06:04:49;;;;;;;5.30;2.28;;;;;;;-143.48;93.71;118439.88;5020673;28;20033;-68
2023/01/16 06:07:14;;;;;;;12.05;2.58;;;;;;;-143.48;93.64;118439.88;4998095;28;20026;-67
2023/01/16 06:09:40;;;;;;;8.10;2.67;;;;;;;-143.48;93.92;118439.88;5014968;28;20030;-67
2023/01/16 06:12:07;;;;;;;6.68;2.33;;;;;;;-143.48;93.50;118439.88;5014136;28;20036;-66
2023/01/16 06:14:35;;;;;;;5.50;2.13;;;;;;;-143.48;93.35;118439.88;5014034;28;20026;-66
2023/01/16 06:17:01;;;;;;;5.88;2.28;;;;;;;-143.48;93.18;118439.88;5015565;28;20029;-67
2023/01/16 06:19:26;;;;;;;9.65;2.10;;;;;;;-143.48;93.22;118439.88;5014046;28;20025;-67
2023/01/16 06:21:51;;;;;;;5.18;2.05;;;;;;;-143.48;93.13;118439.88;5013818;28;20022;-67
2023/01/16 06:24:17;;;;;;;7.68;2.40;;;;;;;-143.48;93.26;118439.88;5013913;28;20025;-67
2023/01/16 06:26:42;;;;;;;9.73;2.58;;;;;;;-143.48;92.71;118439.88;5013758;28;20136;-67
2023/01/16 06:29:09;;;;;;;7.97;2.58;;;;;;;-143.48;92.01;118439.88;5013972;28;20022;-67
2023/01/16 06:31:35;;;;;;;11.13;2.35;;;;;;;-143.48;92.47;118439.88;5013733;28;20030;-66
2023/01/16 06:34:00;;;;;;;9.10;2.10;;;;;;;-143.48;92.37;118439.88;5013702;28;20022;-67
2023/01/16 06:36:25;;;;;;;12.02;2.13;;;;;;;-143.48;92.10;118439.88;4995697;28;20076;-67
2023/01/16 06:38:51;;;;;;;5.28;2.10;;;;;;;-143.48;91.85;118439.88;5013565;28;20022;-67
2023/01/16 06:41:16;;;;;;;5.63;2.17;;;;;;;-143.48;92.11;118439.88;5014122;28;20439;-67
2023/01/16 06:43:41;;;;;;;8.20;2.35;;;;;;;-143.48;91.67;118439.88;5013607;28;20021;-67
2023/01/16 06:46:07;;;;;;;5.90;2.33;;;;;;;-143.48;92.07;118439.88;4996411;28;20026;-67
2023/01/16 06:48:32;;;;;;;5.70;2.42;;;;;;;-143.48;92.49;118439.88;5013637;28;20025;-67
2023/01/16 06:50:59;;;;;;;8.05;2.40;;;;;;;-143.48;92.43;118439.88;5013904;28;20449;-67
2023/01/16 06:53:24;;;;;;;8.35;2.65;;;;;;;-143.48;92.48;118439.88;5013337;28;20465;-67
2023/01/16 06:55:49;;;;;;;9.40;2.67;;;;;;;-143.48;92.58;118439.88;5013359;28;20036;-67
2023/01/16 06:58:15;;;;;;;6.72;2.40;;;;;;;-143.48;93.21;118439.88;4995872;28;20030;-67
2023/01/16 07:00:41;;;;;;;4.88;2.35;;;;;;;-143.48;93.67;118439.88;4996019;28;20095;-67
2023/01/16 07:03:06;;;;;;;7.85;2.30;;;;;;;-143.48;93.33;118439.88;4995713;28;20584;-68
2023/01/16 07:05:32;;;;;;;5.40;2.35;;;;;;;-143.48;93.89;118439.88;5013315;28;20085;-67
2023/01/16 07:07:57;;;;;;;11.23;2.35;;;;;;;-143.48;94.56;118439.88;4995009;28;20439;-68
2023/01/16 07:10:23;;;;;;;6.82;2.33;;;;;;;-143.48;94.21;118439.88;5013273;28;20080;-68
2023/01/16 07:12:51;;;;;;;8.50;2.10;;;;;;;-143.48;94.64;118439.88;5013312;28;20033;-67
2023/01/16 07:23:46;;;;;;;9.45;2.63;;;;;;;-143.48;95.92;118439.88;5030150;28;20032;-68
2023/01/16 07:26:15;;;;;;;9.43;2.20;;;;;;;-143.48;95.39;118439.88;5017201;28;20489;-68
2023/01/16 07:28:40;;;;;;;6.70;2.10;;;;;;;-143.48;95.23;118439.88;5013301;28;20123;-68
2023/01/16 07:31:07;;;;;;;7.65;2.15;;;;;;;-143.48;95.23;118439.88;5023709;28;20002;-68
2023/01/16 07:33:32;;;;;;;9.68;2.08;;;;;;;-143.48;95.84;118439.88;5013274;28;20034;-68
2023/01/16 07:35:58;;;;;;;5.10;2.35;;;;;;;-143.48;96.09;118439.88;5013015;28;20119;-68
2023/01/16 07:38:23;;;;;;;6.72;1.95;;;;;;;-143.48;95.88;118439.88;5001589;28;20124;-68
2023/01/16 07:40:48;;;;;;;3.92;1.80;;;;;;;-143.48;95.73;118439.88;5011274;28;20030;-68
2023/01/16 07:43:14;;;;;;;6.65;2.25;;;;;;;-143.48;95.57;118439.88;4993630;28;20033;-68
2023/01/16 07:45:39;;;;;;;5.95;2.47;;;;;;;-143.48;95.29;118439.88;5011765;28;20041;-67
2023/01/16 07:48:05;;;;;;;6.57;2.03;;;;;;;-143.48;95.47;118439.88;5014857;28;20022;-67
2023/01/16 07:50:30;;;;;;;6.38;1.70;;;;;;;-143.48;95.16;118439.88;5015734;28;20034;-68
2023/01/16 07:52:56;;;;;;;8.38;2.20;;;;;;;-143.48;95.39;118439.88;4999298;28;20469;-68
2023/01/16 07:55:21;;;;;;;9.82;2.03;;;;;;;-143.48;95.76;118439.88;4999157;28;20026;-67
2023/01/16 07:57:47;;;;;;;7.63;2.40;;;;;;;-143.48;95.04;118439.88;5016576;28;20033;-68
2023/01/16 08:00:13;;;;;;;6.13;2.20;;;;;;;-143.48;95.52;118439.88;5016650;28;20033;-67
2023/01/16 08:02:39;;;;;;;5.85;2.10;;;;;;;-143.48;95.02;118439.88;5016732;28;20202;-68
2023/01/16 08:05:05;;;;;;;3.83;1.83;;;;;;;-143.48;95.23;118439.88;5016556;28;20053;-68
2023/01/16 08:07:31;;;;;;;8.20;2.33;;;;;;;-143.48;95.13;118439.88;5017616;28;20029;-68
2023/01/16 08:09:56;;;;;;;8.35;2.08;;;;;;;-143.48;95.28;118439.88;5016666;28;20025;-68
2023/01/16 08:12:21;;;;;;;3.75;2.10;;;;;;;-143.48;94.98;118439.88;5016630;28;20076;-68
2023/01/16 08:14:46;;;;;;;5.35;2.35;;;;;;;-143.48;94.95;118439.88;5016415;28;20101;-67
2023/01/16 08:17:12;;;;;;;5.25;2.00;;;;;;;-143.48;95.36;118439.88;5016296;28;20113;-67
2023/01/16 08:19:37;;;;;;;4.72;2.42;;;;;;;-143.48;95.25;118439.88;4998832;28;20029;-66
2023/01/16 08:22:03;;;;;;;3.20;2.20;;;;;;;-143.48;95.34;118439.88;5016081;28;20030;-67
2023/01/16 08:24:29;;;;;;;6.13;2.22;;;;;;;-143.48;95.24;118439.88;5016051;28;20052;-67
2023/01/16 08:26:56;;;;;;;2.75;2.00;;;;;;;-143.48;95.26;118439.88;5016080;28;20050;-67
2023/01/16 08:29:22;;;;;;;6.43;2.60;;;;;;;-143.48;95.56;118439.88;4998494;28;20026;-67
2023/01/16 08:31:48;;;;;;;4.57;2.35;;;;;;;-143.48;95.46;118439.88;4998373;28;20156;-68
2023/01/16 08:34:13;;;;;;;4.97;2.42;;;;;;;-143.48;95.34;118439.88;5016049;28;20069;-67
2023/01/16 08:36:38;;;;;;;3.90;2.40;;;;;;;-143.48;95.39;118439.88;4998673;28;20079;-67
2023/01/16 08:39:04;;;;;;;4.47;2.60;;;;;;;-143.48;95.52;118439.88;5016053;28;20029;-67
2023/01/16 08:52:34;;;;;;;6.05;2.97;;;;;;;-143.48;96.21;118439.88;5016256;28;20033;-68
2023/01/16 08:55:00;;;;;;;8.90;2.80;;;;;;;-143.48;95.86;118439.88;5016253;28;20025;-67
2023/01/16 08:57:29;;;;;;;6.70;2.95;;;;;;;-143.48;96.28;118439.88;4997524;28;20037;-67
2023/01/16 08:59:56;;;;;;;5.35;2.30;;;;;;;-143.48;96.30;118439.88;5016310;28;20032;-66
2023/01/16 09:02:22;;;;;;;5.63;3.08;;;;;;;-143.48;96.72;118439.88;5016185;28;20085;-67
2023/01/16 09:04:48;;;;;;;9.32;3.33;;;;;;;-143.48;96.96;118439.88;5017085;28;20156;-67
2023/01/16 09:07:15;;;;;;;7.20;2.63;;;;;;;-143.48;96.49;118439.88;5016721;28;20489;-67
2023/01/16 09:09:40;;;;;;;6.28;3.55;;;;;;;-143.48;96.11;118439.88;5017582;28;20036;-67
2023/01/16 09:14:54;;;;;;;7.95;3.08;;;;;;;-143.48;96.57;118439.88;5018793;28;20511;-67
2023/01/16 09:17:20;;;;;;;7.20;2.88;;;;;;;-143.48;95.54;118439.88;5019078;28;20030;-68
2023/01/16 09:19:45;;;;;;;6.72;3.25;;;;;;;-143.48;95.83;118439.88;5019760;28;20037;-67
2023/01/16 09:22:11;;;;;;;8.50;3.25;;;;;;;-143.48;95.23;118439.88;5007075;28;20010;-67
2023/01/16 09:24:36;;;;;;;4.85;2.90;;;;;;;-143.48;94.83;118439.88;5014551;28;20029;-68
2023/01/16 09:27:02;;;;;;;5.85;2.97;;;;;;;-143.48;95.00;118439.88;5032559;28;20041;-69
2023/01/16 09:29:27;;;;;;;14.10;2.83;;;;;;;-143.48;95.54;118439.88;5036922;28;20085;-68
2023/01/16 09:31:54;;;;;;;6.03;2.80;;;;;;;-143.48;95.48;118439.88;5015514;28;20018;-68
2023/01/16 09:34:19;;;;;;;5.53;2.22;;;;;;;-143.48;95.08;118439.88;5033074;28;20029;-68
2023/01/16 09:36:44;;;;;;;6.60;2.90;;;;;;;-143.48;95.32;118439.88;5033597;28;20040;-68
2023/01/16 09:39:09;;;;;;;4.78;2.83;;;;;;;-143.48;95.44;118439.88;5017140;28;20022;-68
2023/01/16 09:44:29;;;;;;;5.20;2.80;;;;;;;-143.48;95.92;118439.88;5036823;28;20109;-69
2023/01/16 09:46:57;;;;;;;7.32;2.90;;;;;;;-143.48;95.52;118439.88;5020057;28;20014;-69
2023/01/16 09:49:31;;;;;;;5.78;3.30;;;;;;;-143.48;96.00;118439.88;5036333;28;20036;-69
2023/01/16 10:00:32;;;;;;;7.43;3.67;;;;;;;-143.48;96.42;118439.88;5020981;28;20096;-69
2023/01/16 10:02:57;;;;;;;7.80;4.00;;;;;;;-143.48;95.96;118439.88;5018691;28;20471;-69
2023/01/16 10:05:33;;;;;;;7.43;3.60;;;;;;;-143.48;96.46;118439.88;5018417;28;20064;-69
2023/01/16 10:08:17;;;;;;;13.40;4.25;;;;;;;-143.48;96.04;118439.88;5000117;28;20022;-69
2023/01/16 10:11:06;;;;;;;8.90;3.70;;;;;;;-143.48;95.52;118439.88;5017740;28;20018;-69
2023/01/16 10:13:31;;;;;;;7.90;3.78;;;;;;;-143.48;95.57;118439.88;4998572;28;20034;-68
2023/01/16 10:16:26;;;;;;;5.25;2.75;;;;;;;-143.48;95.15;118439.88;4998278;28;20021;-68
2023/01/16 10:19:01;;;;;;;6.07;2.90;;;;;;;-143.48;95.26;118439.88;4994232;28;20049;-68
2023/01/16 10:21:48;;;;;;;5.63;3.03;;;;;;;-143.48;95.72;118439.88;4997791;28;20030;-68
2023/01/16 10:24:44;;;;;;;4.95;3.05;;;;;;;-143.48;95.58;118439.88;5014938;28;20072;-68
2023/01/16 10:27:15;;;;;;;5.88;2.42;;;;;;;-143.48;95.44;118439.88;5018607;28;20045;-69
2023/01/16 10:29:55;;;;;;;5.18;2.08;;;;;;;-143.48;94.65;118439.88;5006557;28;20397;-69
2023/01/16 10:32:35;;;;;;;3.22;2.28;;;;;;;-143.48;94.38;118439.88;5015380;28;20453;-70
2023/01/16 10:35:22;;;;;;;3.60;2.10;;;;;;;-143.48;94.62;118439.88;4997117;28;20122;-69
2023/01/16 10:37:48;;;;;;;4.40;2.10;;;;;;;-143.48;94.73;118439.88;5014017;28;20104;-69
2023/01/16 10:40:22;;;;;;;3.60;1.90;;;;;;;-143.48;94.81;118439.88;4996367;28;20073;-69
2023/01/16 10:51:31;;;;;;;3.80;1.73;;;;;;;-143.48;94.36;118439.88;4953919;29;19965;-69
2023/01/16 10:53:58;;;;;;;1.40;1.30;;;;;;;-143.48;92.91;118439.88;4988547;28;20033;-68
2023/01/16 10:56:24;;;;;;;2.40;1.50;;;;;;;-143.48;93.30;118439.88;5013764;28;20041;-68
2023/01/16 10:58:51;;;;;;;4.40;2.30;;;;;;;-143.48;93.39;118439.88;5013726;28;20396;-68
2023/01/16 11:01:19;;;;;;;5.72;1.88;;;;;;;-143.48;93.72;118439.88;5013649;28;20073;-68
2023/01/16 11:03:50;;;;;;;4.10;2.10;;;;;;;-143.48;93.53;118439.88;5013670;28;20132;-68
2023/01/16 11:06:21;;;;;;;5.85;1.98;;;;;;;-143.48;94.49;118439.88;5013426;28;20050;-68
2023/01/16 11:08:54;;;;;;;4.90;1.98;;;;;;;-143.48;94.18;118439.88;5013661;28;20037;-68
2023/01/16 11:20:18;;;;;;;3.92;2.22;;;;;;;-143.48;94.50;118439.88;5014840;28;20040;-69
2023/01/16 11:22:47;;;;;;;4.22;2.50;;;;;;;-143.48;95.19;118439.88;5021050;28;20037;-69
2023/01/16 11:25:18;;;;;;;4.95;2.58;;;;;;;-143.48;95.23;118439.88;5017198;28;20025;-69
2023/01/16 11:27:44;;;;;;;4.35;2.60;;;;;;;-143.48;95.75;118439.88;5017213;28;20507;-69
2023/01/16 11:30:19;;;;;;;3.17;1.92;;;;;;;-143.48;94.87;118439.88;5017194;28;20535;-69
2023/01/16 11:32:48;;;;;;;4.07;2.20;;;;;;;-143.48;94.62;118439.88;5017147;28;20362;-69
2023/01/16 11:35:16;;;;;;;3.42;1.92;;;;;;;-143.48;94.89;118439.88;5017003;28;20025;-69
2023/01/16 11:37:44;;;;;;;2.70;1.70;;;;;;;-143.48;94.99;118439.88;5016432;28;20246;-69
2023/01/16 11:40:18;;;;;;;3.47;1.92;;;;;;;-143.48;95.18;118439.88;4998280;28;20392;-69
2023/01/16 11:48:26;;;;;;;4.70;2.13;;;;;;;-143.48;95.39;118439.88;5017103;28;20040;-68
2023/01/16 11:50:57;;;;;;;3.97;2.28;;;;;;;-143.48;94.75;118439.88;5016850;28;20022;-68
2023/01/16 11:53:28;;;;;;;5.07;2.25;;;;;;;-143.48;94.95;118439.88;5016794;28;20384;-70
2023/01/16 11:56:14;;;;;;;3.58;2.40;;;;;;;-143.48;94.92;118439.88;5016740;28;20086;-69
2023/01/16 11:59:08;;;;;;;4.65;2.10;;;;;;;-143.48;95.12;118439.88;4999273;28;20029;-69
2023/01/16 12:02:23;;;;;;;4.68;2.13;;;;;;;-143.48;94.73;118439.88;4998787;28;20046;-69
2023/01/16 12:08:04;;;;;;;4.28;2.30;;;;;;;-143.48;95.41;118439.88;5016844;28;20037;-68
2023/01/16 12:10:39;;;;;;;3.90;2.17;;;;;;;-143.48;95.45;118439.88;5016309;28;20073;-68
2023/01/16 12:16:20;;;;;;;3.72;2.40;;;;;;;-143.48;95.99;118439.88;5016704;28;20068;-68
2023/01/16 12:18:57;;;;;;;5.35;2.17;;;;;;;-143.48;95.97;118439.88;5016378;28;20480;-69
2023/01/16 12:21:40;;;;;;;3.58;2.08;;;;;;;-143.48;95.61;118439.88;5016147;28;20104;-69
2023/01/16 12:24:33;;;;;;;4.45;2.22;;;;;;;-143.48;96.55;118439.88;5016285;28;20021;-68
2023/01/16 12:27:24;;;;;;;4.55;2.65;;;;;;;-143.48;96.88;118439.88;5003651;28;20054;-68